createdAt,value
2023-02-19T00:01:54.639Z,11.41
2023-02-19T00:04:23.836Z,11.46
2023-02-19T00:06:52.428Z,11.44
2023-02-19T00:09:22.805Z,11.09
2023-02-19T00:11:51.400Z,10.89
2023-02-19T00:14:21.902Z,10.90
2023-02-19T00:16:50.973Z,11.16
2023-02-19T00:19:20.970Z,10.69
2023-02-19T00:21:51.980Z,11.31
2023-02-19T00:24:22.081Z,11.40
2023-02-19T00:26:50.556Z,10.89
2023-02-19T00:29:21.305Z,11.11
2023-02-19T00:31:50.025Z,11.06
2023-02-19T00:34:18.489Z,10.85
2023-02-19T00:36:47.089Z,11.16
2023-02-19T00:39:18.838Z,11.35
2023-02-19T00:41:48.898Z,11.09
2023-02-19T00:44:17.978Z,10.86
2023-02-19T00:46:49.820Z,11.32
2023-02-19T00:49:22.250Z,11.11
2023-02-19T00:51:52.272Z,11.59
2023-02-19T00:54:22.813Z,11.50
2023-02-19T00:56:52.631Z,10.96
2023-02-19T00:59:20.770Z,11.22
2023-02-19T01:01:49.931Z,11.30
2023-02-19T01:04:19.561Z,11.17
2023-02-19T01:06:48.942Z,11.17
2023-02-19T01:09:17.033Z,11.08
2023-02-19T01:11:45.489Z,11.20
2023-02-19T01:14:15.257Z,11.31
2023-02-19T01:16:43.566Z,11.42
2023-02-19T01:19:12.390Z,11.28
2023-02-19T01:21:41.674Z,11.24
2023-02-19T01:24:11.399Z,11.20
2023-02-19T01:26:40.925Z,11.08
2023-02-19T01:29:10.352Z,11.39
2023-02-19T01:31:42.160Z,11.65
2023-02-19T01:34:12.501Z,11.25
2023-02-19T01:36:41.413Z,11.12
2023-02-19T01:39:10.522Z,11.59
2023-02-19T01:41:41.635Z,11.23
2023-02-19T01:44:48.838Z,11.23
2023-02-19T01:47:21.426Z,10.89
2023-02-19T01:49:54.181Z,11.55
2023-02-19T01:52:27.230Z,11.12
2023-02-19T01:54:56.876Z,11.04
2023-02-19T01:57:28.049Z,11.26
2023-02-19T02:00:00.715Z,11.09
2023-02-19T02:02:31.080Z,10.97
2023-02-19T02:05:01.391Z,11.27
2023-02-19T02:07:47.649Z,11.28
2023-02-19T02:10:22.366Z,11.23
2023-02-19T02:12:52.411Z,11.04
2023-02-19T02:15:22.655Z,11.30
2023-02-19T02:17:58.977Z,11.35
2023-02-19T02:21:00.486Z,11.50
2023-02-19T02:23:41.707Z,11.62
2023-02-19T02:26:32.061Z,10.81
2023-02-19T02:29:23.209Z,11.29
2023-02-19T02:31:58.356Z,11.66
2023-02-19T02:34:36.164Z,11.60
2023-02-19T02:37:05.755Z,11.13
2023-02-19T02:39:34.436Z,11.34
2023-02-19T02:42:16.922Z,11.29
2023-02-19T02:45:06.353Z,11.42
2023-02-19T02:47:43.263Z,11.59
2023-02-19T02:50:16.769Z,11.58
2023-02-19T02:53:04.740Z,11.09
2023-02-19T02:55:40.020Z,11.21
2023-02-19T02:58:09.244Z,11.62
2023-02-19T03:00:52.993Z,11.41
2023-02-19T03:03:26.637Z,10.76
2023-02-19T03:06:02.969Z,10.86
2023-02-19T03:08:35.859Z,11.05
2023-02-19T03:11:20.873Z,10.70
2023-02-19T03:14:09.636Z,10.76
2023-02-19T03:16:58.655Z,10.34
2023-02-19T03:19:30.171Z,10.91
2023-02-19T03:22:03.261Z,10.66
2023-02-19T03:24:54.129Z,10.77
2023-02-19T03:27:24.826Z,10.65
2023-02-19T03:29:58.216Z,10.66
2023-02-19T03:32:31.526Z,10.65
2023-02-19T03:35:06.500Z,10.37
2023-02-19T03:37:43.012Z,10.88
2023-02-19T03:40:12.168Z,10.37
2023-02-19T03:42:48.843Z,10.78
2023-02-19T03:45:35.090Z,10.64
2023-02-19T03:48:14.149Z,10.50
2023-02-19T03:50:50.097Z,10.58
2023-02-19T03:53:28.348Z,10.30
2023-02-19T03:56:09.461Z,10.69
2023-02-19T03:58:53.329Z,10.87
2023-02-19T04:01:29.458Z,10.74
2023-02-19T04:04:02.821Z,10.49
2023-02-19T04:06:35.066Z,10.45
2023-02-19T04:09:07.826Z,10.73
2023-02-19T04:11:38.103Z,10.76
2023-02-19T04:14:12.384Z,10.71
2023-02-19T04:16:45.360Z,10.85
2023-02-19T04:19:17.691Z,10.82
2023-02-19T04:21:48.447Z,10.65
2023-02-19T04:24:23.271Z,10.55
2023-02-19T04:26:51.526Z,10.85
2023-02-19T04:29:19.970Z,11.03
2023-02-19T04:31:48.390Z,10.68
2023-02-19T04:34:16.543Z,10.83
2023-02-19T04:36:44.693Z,11.13
2023-02-19T04:39:14.230Z,10.56
2023-02-19T04:41:43.022Z,10.73
2023-02-19T04:44:10.873Z,10.94
2023-02-19T04:46:39.967Z,10.57
2023-02-19T04:49:10.093Z,10.83
2023-02-19T04:51:38.163Z,10.70
2023-02-19T04:54:07.113Z,10.96
2023-02-19T04:56:36.829Z,11.22
2023-02-19T04:59:05.468Z,10.75
2023-02-19T05:01:33.584Z,10.92
2023-02-19T05:04:01.839Z,11.26
2023-02-19T05:06:30.009Z,11.05
2023-02-19T05:08:58.356Z,11.15
2023-02-19T05:11:26.883Z,11.02
2023-02-19T05:13:57.822Z,11.35
2023-02-19T05:16:26.662Z,11.03
2023-02-19T05:18:55.207Z,11.14
2023-02-19T05:21:23.514Z,11.21
2023-02-19T05:23:51.349Z,10.92
2023-02-19T05:26:22.320Z,11.41
2023-02-19T05:28:52.676Z,10.99
2023-02-19T05:31:22.879Z,11.28
2023-02-19T05:33:53.184Z,11.39
2023-02-19T05:36:22.510Z,11.82
2023-02-19T05:38:54.448Z,11.52
2023-02-19T05:41:24.243Z,11.24
2023-02-19T05:43:53.003Z,11.13
2023-02-19T05:46:24.971Z,10.93
2023-02-19T05:48:55.010Z,11.20
2023-02-19T05:51:25.689Z,10.90
2023-02-19T05:53:54.446Z,10.88
2023-02-19T05:56:28.967Z,10.98
2023-02-19T05:58:57.335Z,10.57
2023-02-19T06:01:29.403Z,10.71
2023-02-19T06:03:58.049Z,10.74
2023-02-19T06:06:27.255Z,10.95
2023-02-19T06:08:56.148Z,10.52
2023-02-19T06:11:25.275Z,10.87
2023-02-19T06:13:53.893Z,10.97
2023-02-19T06:16:22.065Z,10.41
2023-02-19T06:18:52.025Z,10.36
2023-02-19T06:21:20.893Z,10.16
2023-02-19T06:23:49.063Z,10.27
2023-02-19T06:26:19.987Z,10.08
2023-02-19T06:28:49.601Z,10.37
2023-02-19T06:31:18.689Z,10.33
2023-02-19T06:33:47.340Z,10.74
2023-02-19T06:36:18.445Z,10.73
2023-02-19T06:38:47.065Z,10.64
2023-02-19T06:41:16.331Z,10.40
2023-02-19T06:43:44.757Z,10.32
2023-02-19T06:46:14.310Z,10.41
2023-02-19T06:48:43.756Z,10.32
2023-02-19T06:51:13.729Z,10.32
2023-02-19T06:53:43.706Z,10.07
2023-02-19T06:56:24.708Z,10.62
2023-02-19T06:58:53.614Z,10.37
2023-02-19T07:01:22.357Z,10.29
2023-02-19T07:03:51.230Z,10.30
2023-02-19T07:06:19.799Z,10.68
2023-02-19T07:08:49.294Z,10.65
2023-02-19T07:11:18.741Z,11.25
2023-02-19T07:13:46.884Z,10.94
2023-02-19T07:16:15.718Z,11.28
2023-02-19T07:18:43.876Z,10.87
2023-02-19T07:21:13.984Z,11.28
2023-02-19T07:23:43.142Z,10.72
2023-02-19T07:26:15.980Z,11.15
2023-02-19T07:28:45.636Z,11.42
2023-02-19T07:31:14.366Z,10.33
2023-02-19T07:33:44.434Z,10.39
2023-02-19T07:36:13.298Z,10.31
2023-02-19T07:38:41.365Z,10.40
2023-02-19T07:41:10.070Z,10.49
2023-02-19T07:43:40.780Z,10.75
2023-02-19T07:46:10.939Z,10.92
2023-02-19T07:48:40.807Z,10.85
2023-02-19T07:51:12.085Z,9.75
2023-02-19T07:53:40.640Z,9.38
2023-02-19T07:56:09.284Z,8.94
2023-02-19T07:58:37.575Z,8.09
2023-02-19T08:01:14.968Z,8.47
2023-02-19T08:03:42.930Z,8.78
2023-02-19T08:06:12.188Z,9.15
2023-02-19T08:08:40.563Z,9.17
2023-02-19T08:11:26.921Z,9.07
2023-02-19T08:13:54.947Z,9.90
2023-02-19T08:16:40.862Z,9.66
2023-02-19T08:19:10.622Z,9.92
2023-02-19T08:21:38.683Z,10.22
2023-02-19T08:24:07.178Z,9.86
2023-02-19T08:26:35.652Z,9.99
2023-02-19T08:29:04.185Z,10.73
2023-02-19T08:31:34.330Z,10.46
2023-02-19T08:34:02.893Z,10.70
2023-02-19T08:36:31.318Z,10.29
2023-02-19T08:38:59.284Z,9.80
2023-02-19T08:41:27.481Z,9.52
2023-02-19T08:43:55.446Z,9.75
2023-02-19T08:46:23.752Z,9.69
2023-02-19T08:48:53.468Z,9.36
2023-02-19T08:51:21.504Z,9.32
2023-02-19T08:53:49.693Z,8.72
2023-02-19T08:56:18.658Z,8.87
2023-02-19T08:58:46.886Z,8.98
2023-02-19T09:01:16.731Z,9.34
2023-02-19T09:03:45.501Z,9.48
2023-02-19T09:06:18.057Z,8.63
2023-02-19T09:08:46.136Z,8.99
2023-02-19T09:11:15.235Z,9.28
2023-02-19T09:13:43.543Z,9.01
2023-02-19T09:16:12.519Z,8.75
2023-02-19T09:18:40.918Z,8.69
2023-02-19T09:21:09.346Z,8.85
2023-02-19T09:23:39.429Z,8.98
2023-02-19T09:26:10.143Z,8.35
2023-02-19T09:28:41.709Z,7.93
2023-02-19T09:31:12.878Z,8.02
2023-02-19T09:33:43.692Z,8.38
2023-02-19T09:36:12.198Z,7.95
2023-02-19T09:38:41.818Z,7.77
2023-02-19T09:41:16.658Z,7.73
2023-02-19T09:43:45.505Z,6.60
2023-02-19T09:46:25.252Z,7.45
2023-02-19T09:48:55.730Z,6.91
2023-02-19T09:51:25.939Z,7.38
2023-02-19T09:53:57.540Z,8.28
2023-02-19T09:56:27.141Z,7.68
2023-02-19T09:58:58.736Z,8.61
2023-02-19T10:01:32.244Z,8.57
2023-02-19T10:04:00.350Z,8.00
2023-02-19T10:06:29.969Z,8.17
2023-02-19T10:09:12.805Z,7.84
2023-02-19T10:11:41.398Z,8.11
2023-02-19T10:14:16.518Z,7.96
2023-02-19T10:16:47.115Z,9.30
2023-02-19T10:19:15.985Z,9.58
2023-02-19T10:21:44.377Z,8.43
2023-02-19T10:24:21.399Z,7.52
2023-02-19T10:31:20.547Z,7.96
2023-02-19T10:33:51.576Z,8.83
2023-02-19T10:36:29.878Z,8.45
2023-02-19T10:39:00.599Z,8.15
2023-02-19T10:41:32.030Z,7.97
2023-02-19T10:44:06.649Z,8.07
2023-02-19T10:46:38.782Z,8.97
2023-02-19T10:49:19.919Z,7.86
2023-02-19T10:51:49.147Z,8.26
2023-02-19T10:54:20.407Z,8.20
2023-02-19T10:56:50.178Z,7.97
2023-02-19T10:59:25.705Z,7.30
2023-02-19T11:01:58.940Z,8.06
2023-02-19T11:04:29.348Z,8.03
2023-02-19T11:06:58.534Z,7.74
2023-02-19T11:09:30.918Z,8.35
2023-02-19T11:12:01.773Z,8.90
2023-02-19T11:14:31.789Z,9.62
2023-02-19T11:17:04.325Z,9.10
2023-02-19T11:19:38.097Z,8.88
2023-02-19T11:22:21.415Z,9.01
2023-02-19T11:24:53.052Z,8.71
2023-02-19T11:27:26.870Z,8.75
2023-02-19T11:29:55.275Z,8.14
2023-02-19T11:32:30.126Z,7.70
2023-02-19T11:35:19.522Z,7.84
2023-02-19T11:37:59.731Z,8.28
2023-02-19T11:40:42.170Z,7.12
2023-02-19T11:43:31.739Z,8.17
2023-02-19T11:46:09.917Z,9.08
2023-02-19T11:48:50.144Z,8.75
2023-02-19T11:51:46.126Z,8.12
2023-02-19T11:54:32.111Z,8.82
2023-02-19T11:57:10.240Z,8.14
2023-02-19T11:59:49.363Z,8.56
2023-02-19T12:02:40.871Z,8.35
2023-02-19T12:05:29.742Z,8.54
2023-02-19T12:08:14.545Z,8.36
2023-02-19T12:10:58.341Z,8.33
2023-02-19T12:13:40.633Z,8.00
2023-02-19T12:16:20.897Z,8.40
2023-02-19T12:19:05.083Z,8.90
2023-02-19T12:21:47.789Z,8.75
2023-02-19T12:25:01.256Z,9.68
2023-02-19T12:27:45.493Z,9.15
2023-02-19T12:30:28.183Z,9.34
2023-02-19T12:33:19.173Z,8.67
2023-02-19T12:36:04.463Z,8.57
2023-02-19T12:38:35.194Z,8.79
2023-02-19T12:41:16.732Z,8.28
2023-02-19T12:43:53.204Z,8.22
2023-02-19T12:46:27.359Z,9.46
2023-02-19T12:49:02.867Z,9.06
2023-02-19T12:51:40.710Z,8.52
2023-02-19T12:54:16.061Z,8.26
2023-02-19T12:56:50.261Z,9.01
2023-02-19T12:59:26.000Z,9.82
2023-02-19T13:01:59.399Z,9.89
2023-02-19T13:04:35.744Z,9.07
2023-02-19T13:07:10.692Z,9.58
2023-02-19T13:09:43.767Z,9.33
2023-02-19T13:12:17.372Z,8.91
2023-02-19T13:14:49.955Z,8.78
2023-02-19T13:17:24.881Z,9.55
2023-02-19T13:19:59.724Z,9.75
2023-02-19T13:22:52.856Z,11.55
2023-02-19T13:25:23.617Z,11.42
2023-02-19T13:28:14.808Z,10.71
2023-02-19T13:30:59.249Z,11.00
2023-02-19T13:33:42.297Z,11.84
2023-02-19T13:36:15.752Z,11.59
2023-02-19T13:38:46.565Z,10.91
2023-02-19T13:41:28.047Z,9.92
2023-02-19T13:43:59.554Z,9.38
2023-02-19T13:46:38.700Z,10.05
2023-02-19T13:49:44.573Z,9.95
2023-02-19T13:52:38.304Z,9.96
2023-02-19T13:55:44.219Z,8.93
2023-02-19T13:58:52.122Z,9.77
2023-02-19T14:01:21.041Z,9.47
2023-02-19T14:03:54.820Z,9.44
2023-02-19T14:06:23.062Z,9.12
2023-02-19T14:08:57.212Z,8.74
2023-02-19T14:12:05.368Z,8.64
2023-02-19T14:14:36.880Z,8.20
2023-02-19T14:17:26.768Z,8.96
2023-02-19T14:20:04.450Z,9.09
2023-02-19T14:23:01.867Z,8.92
2023-02-19T14:25:38.293Z,8.90
2023-02-19T14:28:15.881Z,9.09
2023-02-19T14:30:50.351Z,8.97
2023-02-19T14:33:22.579Z,8.27
2023-02-19T14:35:55.622Z,9.03
2023-02-19T14:38:27.478Z,8.79
2023-02-19T14:40:58.439Z,8.82
2023-02-19T14:43:29.297Z,8.78
2023-02-19T14:46:00.298Z,8.99
2023-02-19T14:48:33.931Z,8.36
2023-02-19T14:51:06.725Z,8.47
2023-02-19T14:53:40.610Z,7.72
2023-02-19T14:56:22.062Z,7.91
2023-02-19T14:59:23.205Z,7.55
2023-02-19T15:01:56.176Z,7.82
2023-02-19T15:04:26.074Z,7.90
2023-02-19T15:06:57.127Z,8.52
2023-02-19T15:09:32.420Z,8.56
2023-02-19T15:12:04.424Z,9.84
2023-02-19T15:14:34.757Z,9.31
2023-02-19T15:17:06.567Z,10.06
2023-02-19T15:19:39.697Z,9.53
2023-02-19T15:22:08.997Z,9.34
2023-02-19T15:24:37.749Z,9.47
2023-02-19T15:27:07.755Z,9.34
2023-02-19T15:29:35.669Z,9.62
2023-02-19T15:32:03.848Z,8.77
2023-02-19T15:34:33.760Z,8.37
2023-02-19T15:37:05.870Z,7.76
2023-02-19T15:39:37.190Z,7.61
2023-02-19T15:42:09.590Z,7.74
2023-02-19T15:44:50.720Z,7.04
2023-02-19T15:47:29.356Z,7.40
2023-02-19T15:50:02.481Z,7.22
2023-02-19T15:52:38.500Z,7.59
2023-02-19T15:55:20.809Z,7.56
2023-02-19T15:57:56.366Z,7.43
2023-02-19T16:00:30.840Z,7.70
2023-02-19T16:03:00.098Z,7.87
2023-02-19T16:05:31.008Z,7.83
2023-02-19T16:08:18.022Z,7.69
2023-02-19T16:10:57.373Z,7.24
2023-02-19T16:13:29.386Z,7.32
2023-02-19T16:16:02.430Z,7.67
2023-02-19T16:18:32.031Z,7.31
2023-02-19T16:21:00.681Z,7.29
2023-02-19T16:23:29.304Z,6.83
2023-02-19T16:26:02.355Z,6.68
2023-02-19T16:28:39.461Z,6.14
2023-02-19T16:31:10.370Z,6.38
2023-02-19T16:33:41.984Z,6.42
2023-02-19T16:36:41.847Z,6.66
2023-02-19T16:39:18.708Z,6.59
2023-02-19T16:42:20.958Z,6.73
2023-02-19T16:44:51.847Z,6.78
2023-02-19T16:47:34.746Z,6.55
2023-02-19T16:50:08.959Z,6.57
2023-02-19T16:52:39.299Z,6.75
2023-02-19T16:55:14.733Z,6.88
2023-02-19T16:57:43.203Z,6.45
2023-02-19T17:00:17.970Z,6.03
2023-02-19T17:02:48.210Z,6.19
2023-02-19T17:05:17.346Z,6.25
2023-02-19T17:07:45.731Z,6.36
2023-02-19T17:10:17.171Z,6.15
2023-02-19T17:12:45.254Z,6.03
2023-02-19T17:15:14.954Z,6.05
2023-02-19T17:17:43.790Z,5.60
2023-02-19T17:20:22.794Z,5.82
2023-02-19T17:22:51.745Z,6.00
2023-02-19T17:25:20.450Z,5.83
2023-02-19T17:27:49.074Z,5.55
2023-02-19T17:30:21.907Z,5.65
2023-02-19T17:32:50.251Z,5.91
2023-02-19T17:35:18.679Z,5.49
2023-02-19T17:37:55.974Z,5.67
2023-02-19T17:40:33.187Z,5.56
2023-02-19T17:43:02.256Z,5.42
2023-02-19T17:45:34.053Z,5.78
2023-02-19T17:48:02.505Z,5.47
2023-02-19T17:50:35.094Z,5.53
2023-02-19T17:53:04.616Z,5.98
2023-02-19T17:55:33.649Z,6.14
2023-02-19T17:58:02.658Z,5.95
2023-02-19T18:00:33.178Z,5.91
2023-02-19T18:03:01.470Z,6.20
2023-02-19T18:05:29.658Z,6.12
2023-02-19T18:07:58.120Z,6.22
2023-02-19T18:10:26.582Z,6.71
2023-02-19T18:12:55.086Z,6.16
2023-02-19T18:15:26.310Z,6.38
2023-02-19T18:17:57.565Z,6.53
2023-02-19T18:20:28.315Z,6.36
2023-02-19T18:22:57.711Z,6.23
2023-02-19T18:25:26.438Z,6.25
2023-02-19T18:27:55.306Z,6.16
2023-02-19T18:30:24.464Z,6.27
2023-02-19T18:32:53.317Z,5.92
2023-02-19T18:35:23.175Z,6.44
2023-02-19T18:37:53.234Z,6.42
2023-02-19T18:40:21.710Z,5.95
2023-02-19T18:42:50.437Z,6.26
2023-02-19T18:45:19.145Z,6.09
2023-02-19T18:47:48.699Z,6.27
2023-02-19T18:50:18.107Z,6.12
2023-02-19T18:52:48.048Z,6.21
2023-02-19T18:55:16.464Z,6.29
2023-02-19T18:57:45.347Z,6.17
2023-02-19T19:00:18.830Z,6.44
2023-02-19T19:02:50.568Z,6.38
2023-02-19T19:05:23.147Z,6.15
2023-02-19T19:07:54.464Z,6.23
2023-02-19T19:10:23.930Z,6.16
2023-02-19T19:12:52.318Z,6.22
2023-02-19T19:15:21.580Z,6.11
2023-02-19T19:17:49.642Z,6.22
2023-02-19T19:20:20.728Z,5.90
2023-02-19T19:22:50.711Z,5.65
2023-02-19T19:25:21.199Z,5.75
2023-02-19T19:27:50.899Z,6.10
2023-02-19T19:30:20.885Z,5.60
2023-02-19T19:32:49.879Z,5.85
2023-02-19T19:35:19.012Z,5.72
2023-02-19T19:37:47.545Z,5.56
2023-02-19T19:40:17.653Z,5.80
2023-02-19T19:42:47.875Z,5.91
2023-02-19T19:45:16.831Z,5.59
2023-02-19T19:47:45.339Z,5.52
2023-02-19T19:50:14.639Z,5.67
2023-02-19T19:52:43.078Z,5.85
2023-02-19T19:55:11.660Z,5.47
2023-02-19T19:57:41.011Z,5.55
2023-02-19T20:00:16.448Z,5.49
2023-02-19T20:02:44.968Z,4.99
2023-02-19T20:05:14.139Z,5.29
2023-02-19T20:07:42.600Z,5.38
2023-02-19T20:10:13.298Z,5.25
2023-02-19T20:12:41.812Z,5.22
2023-02-19T20:15:12.458Z,5.56
2023-02-19T20:17:40.899Z,5.04
2023-02-19T20:20:10.536Z,5.55
2023-02-19T20:22:39.679Z,5.69
2023-02-19T20:25:08.143Z,6.05
2023-02-19T20:27:36.502Z,5.88
2023-02-19T20:30:05.984Z,6.13
2023-02-19T20:32:35.443Z,6.04
2023-02-19T20:35:03.453Z,5.80
2023-02-19T20:37:31.572Z,5.69
2023-02-19T20:40:00.318Z,5.52
2023-02-19T20:42:28.540Z,5.59
2023-02-19T20:44:57.040Z,5.60
2023-02-19T20:47:25.186Z,5.44
2023-02-19T20:49:54.532Z,5.42
2023-02-19T20:52:24.786Z,5.62
2023-02-19T20:54:55.547Z,5.28
2023-02-19T20:57:24.389Z,5.59
2023-02-19T20:59:52.335Z,5.63
2023-02-19T21:02:22.323Z,5.51
2023-02-19T21:04:50.913Z,5.34
2023-02-19T21:07:20.462Z,5.56
2023-02-19T21:09:49.045Z,4.95
2023-02-19T21:12:17.778Z,5.05
2023-02-19T21:14:45.945Z,4.79
2023-02-19T21:17:14.658Z,4.82
2023-02-19T21:19:42.905Z,4.59
2023-02-19T21:22:11.300Z,4.89
2023-02-19T21:24:41.002Z,5.08
2023-02-19T21:27:09.646Z,4.67
2023-02-19T21:29:37.717Z,5.09
2023-02-19T21:32:06.283Z,4.94
2023-02-19T21:34:34.714Z,4.78
2023-02-19T21:37:02.838Z,4.94
2023-02-19T21:39:32.368Z,4.44
2023-02-19T21:42:02.804Z,4.60
2023-02-19T21:44:31.225Z,4.45
2023-02-19T21:46:59.504Z,4.30
2023-02-19T21:49:27.607Z,4.28
2023-02-19T21:51:55.886Z,4.57
2023-02-19T21:54:25.836Z,4.30
2023-02-19T21:56:54.842Z,4.81
2023-02-19T21:59:24.850Z,4.93
2023-02-19T22:01:53.093Z,5.13
2023-02-19T22:04:24.571Z,4.85
2023-02-19T22:06:56.631Z,5.28
2023-02-19T22:09:24.872Z,5.07
2023-02-19T22:11:53.118Z,4.86
2023-02-19T22:14:21.713Z,4.80
2023-02-19T22:16:51.804Z,4.79
2023-02-19T22:19:20.381Z,4.63
2023-02-19T22:21:49.066Z,4.71
2023-02-19T22:24:19.467Z,4.56
2023-02-19T22:26:50.771Z,4.76
2023-02-19T22:29:19.262Z,4.78
2023-02-19T22:31:47.930Z,5.13
2023-02-19T22:34:18.347Z,5.16
2023-02-19T22:36:46.632Z,5.40
2023-02-19T22:39:18.949Z,5.35
2023-02-19T22:41:46.891Z,5.03
2023-02-19T22:44:20.069Z,5.31
2023-02-19T22:46:50.293Z,5.05
2023-02-19T22:49:21.016Z,5.09
2023-02-19T22:51:56.301Z,5.10
2023-02-19T22:54:27.201Z,5.12
2023-02-19T22:56:55.707Z,5.07
2023-02-19T22:59:24.563Z,4.93
2023-02-19T23:01:53.508Z,5.06
2023-02-19T23:04:24.403Z,5.23
2023-02-19T23:06:53.060Z,5.49
2023-02-19T23:09:24.236Z,4.77
2023-02-19T23:11:53.339Z,4.90
2023-02-19T23:14:23.195Z,5.03
2023-02-19T23:16:51.164Z,5.11
2023-02-19T23:19:19.649Z,5.44
2023-02-19T23:21:49.760Z,5.45
2023-02-19T23:24:18.453Z,5.23
2023-02-19T23:26:47.682Z,5.40
2023-02-19T23:29:17.490Z,5.43
2023-02-19T23:31:46.100Z,5.54
2023-02-19T23:34:14.951Z,5.30
2023-02-19T23:36:43.464Z,5.50
2023-02-19T23:39:14.673Z,5.46
2023-02-19T23:41:47.900Z,5.37
2023-02-19T23:44:16.899Z,5.41
2023-02-19T23:46:46.686Z,5.35
2023-02-19T23:49:15.368Z,5.50
2023-02-19T23:51:43.468Z,5.47
2023-02-19T23:54:13.678Z,5.39
2023-02-19T23:56:42.302Z,5.43
2023-02-19T23:59:10.805Z,5.52
